createdAt,value
2023-02-22T00:00:43.075Z,11.00
2023-02-22T00:03:15.615Z,11.00
2023-02-22T00:05:47.578Z,10.90
2023-02-22T00:08:16.626Z,10.90
2023-02-22T00:10:44.784Z,10.90
2023-02-22T00:13:14.928Z,11.00
2023-02-22T00:15:42.012Z,10.90
2023-02-22T00:18:16.960Z,10.90
2023-02-22T00:20:44.165Z,11.00
2023-02-22T00:23:19.021Z,10.90
2023-02-22T00:25:48.576Z,11.00
2023-02-22T00:28:17.070Z,10.90
2023-02-22T00:30:44.428Z,10.90
2023-02-22T00:33:17.406Z,10.90
2023-02-22T00:35:48.663Z,10.90
2023-02-22T00:38:19.160Z,10.90
2023-02-22T00:40:46.554Z,10.90
2023-02-22T00:43:14.270Z,10.90
2023-02-22T00:45:42.430Z,10.90
2023-02-22T00:48:10.732Z,10.90
2023-02-22T00:50:38.402Z,10.90
2023-02-22T00:53:09.347Z,10.90
2023-02-22T00:55:38.483Z,10.90
2023-02-22T00:58:06.455Z,10.90
2023-02-22T01:00:40.098Z,10.90
2023-02-22T01:03:09.547Z,10.90
2023-02-22T01:05:38.356Z,10.80
2023-02-22T01:08:08.002Z,10.80
2023-02-22T01:10:36.748Z,10.80
2023-02-22T01:13:09.425Z,10.80
2023-02-22T01:15:39.298Z,10.80
2023-02-22T01:18:07.222Z,10.80
2023-02-22T01:20:34.688Z,10.80
2023-02-22T01:23:03.966Z,10.80
2023-02-22T01:25:32.246Z,10.80
2023-02-22T01:28:01.840Z,10.80
2023-02-22T01:30:33.016Z,10.80
2023-02-22T01:33:02.922Z,10.80
2023-02-22T01:35:33.750Z,10.80
2023-02-22T01:38:02.903Z,10.80
2023-02-22T01:40:35.935Z,10.80
2023-02-22T01:43:07.054Z,10.80
2023-02-22T01:45:45.248Z,10.80
2023-02-22T01:49:10.366Z,10.80
2023-02-22T01:51:44.237Z,10.80
2023-02-22T01:54:13.988Z,10.80
2023-02-22T01:57:07.222Z,10.80
2023-02-22T01:59:37.728Z,10.80
2023-02-22T02:02:06.774Z,10.80
2023-02-22T02:04:35.237Z,10.80
2023-02-22T02:07:06.593Z,10.80
2023-02-22T02:09:40.461Z,10.80
2023-02-22T02:12:11.233Z,10.80
2023-02-22T02:14:41.652Z,10.80
2023-02-22T02:17:12.814Z,10.80
2023-02-22T02:19:51.440Z,10.80
2023-02-22T02:22:34.964Z,10.80
2023-02-22T02:25:38.543Z,10.80
2023-02-22T02:28:40.941Z,10.80
2023-02-22T02:31:21.956Z,10.80
2023-02-22T02:34:27.493Z,10.80
2023-02-22T02:37:16.552Z,10.80
2023-02-22T02:39:56.836Z,10.70
2023-02-22T02:42:31.870Z,10.70
2023-02-22T02:45:10.575Z,10.70
2023-02-22T02:47:46.519Z,10.70
2023-02-22T02:50:34.188Z,10.70
2023-02-22T02:53:04.838Z,10.70
2023-02-22T02:55:32.928Z,10.70
2023-02-22T02:58:00.936Z,10.80
2023-02-22T03:00:39.417Z,10.80
2023-02-22T03:03:28.392Z,10.70
2023-02-22T03:06:35.235Z,10.70
2023-02-22T03:09:13.941Z,10.70
2023-02-22T03:12:08.159Z,10.70
2023-02-22T03:14:48.490Z,10.70
2023-02-22T03:17:38.166Z,10.70
2023-02-22T03:20:14.259Z,10.70
2023-02-22T03:22:53.569Z,10.70
2023-02-22T03:25:43.334Z,10.70
2023-02-22T03:28:16.372Z,10.70
2023-02-22T03:30:53.261Z,10.70
2023-02-22T03:33:46.330Z,10.70
2023-02-22T03:36:28.536Z,10.70
2023-02-22T03:38:59.994Z,10.70
2023-02-22T03:41:28.885Z,10.70
2023-02-22T03:44:09.895Z,10.70
2023-02-22T03:46:41.575Z,10.70
2023-02-22T03:49:32.569Z,10.60
2023-02-22T03:52:01.218Z,10.70
2023-02-22T03:54:30.212Z,10.60
2023-02-22T03:57:08.565Z,10.60
2023-02-22T03:59:39.956Z,10.60
2023-02-22T04:02:07.165Z,10.60
2023-02-22T04:04:35.240Z,10.60
2023-02-22T04:07:04.201Z,10.60
2023-02-22T04:09:31.709Z,10.60
2023-02-22T04:11:59.132Z,10.60
2023-02-22T04:14:28.770Z,10.60
2023-02-22T04:16:58.398Z,10.60
2023-02-22T04:19:26.094Z,10.60
2023-02-22T04:21:53.751Z,10.60
2023-02-22T04:24:26.577Z,10.60
2023-02-22T04:26:55.469Z,10.60
2023-02-22T04:29:23.341Z,10.50
2023-02-22T04:31:51.058Z,10.50
2023-02-22T04:34:18.136Z,10.50
2023-02-22T04:36:45.419Z,10.50
2023-02-22T04:39:12.798Z,10.50
2023-02-22T04:41:39.816Z,10.50
2023-02-22T04:44:07.923Z,10.50
2023-02-22T04:46:36.468Z,10.50
2023-02-22T04:49:05.918Z,10.50
2023-02-22T04:51:37.743Z,10.40
2023-02-22T04:54:07.655Z,10.40
2023-02-22T04:56:37.419Z,10.40
2023-02-22T04:59:06.208Z,10.40
2023-02-22T05:01:36.057Z,10.40
2023-02-22T05:04:06.846Z,10.40
2023-02-22T05:06:34.227Z,10.40
2023-02-22T05:09:01.308Z,10.40
2023-02-22T05:11:29.371Z,10.40
2023-02-22T05:13:56.988Z,10.40
2023-02-22T05:16:24.572Z,10.40
2023-02-22T05:18:52.751Z,10.40
2023-02-22T05:21:20.348Z,10.50
2023-02-22T05:23:47.572Z,10.50
2023-02-22T05:26:16.267Z,10.40
2023-02-22T05:28:43.513Z,10.40
2023-02-22T05:31:10.834Z,10.40
2023-02-22T05:33:39.981Z,10.40
2023-02-22T05:36:07.902Z,10.40
2023-02-22T05:38:43.598Z,10.40
2023-02-22T05:41:13.250Z,10.40
2023-02-22T05:43:44.615Z,10.40
2023-02-22T05:46:13.923Z,10.40
2023-02-22T05:48:41.455Z,10.40
2023-02-22T05:51:09.754Z,10.40
2023-02-22T05:53:39.555Z,10.40
2023-02-22T05:56:08.129Z,10.40
2023-02-22T05:58:37.727Z,10.40
2023-02-22T06:01:05.018Z,10.40
2023-02-22T06:03:32.304Z,10.40
2023-02-22T06:05:59.582Z,10.40
2023-02-22T06:08:27.846Z,10.40
2023-02-22T06:10:55.707Z,10.40
2023-02-22T06:13:22.763Z,10.40
2023-02-22T06:15:50.389Z,10.40
2023-02-22T06:18:19.876Z,10.40
2023-02-22T06:20:47.009Z,10.30
2023-02-22T06:23:14.157Z,10.30
2023-02-22T06:25:44.591Z,10.30
2023-02-22T06:28:12.363Z,10.30
2023-02-22T06:30:43.873Z,10.30
2023-02-22T06:33:12.067Z,10.30
2023-02-22T06:35:39.882Z,10.30
2023-02-22T06:38:07.648Z,10.40
2023-02-22T06:40:35.028Z,10.30
2023-02-22T06:43:02.358Z,10.30
2023-02-22T06:45:30.184Z,10.30
2023-02-22T06:47:57.484Z,10.30
2023-02-22T06:50:30.292Z,10.30
2023-02-22T06:52:58.637Z,10.30
2023-02-22T06:55:31.807Z,10.40
2023-02-22T06:57:59.869Z,10.40
2023-02-22T07:00:28.851Z,10.40
2023-02-22T07:02:56.914Z,10.40
2023-02-22T07:05:25.989Z,10.40
2023-02-22T07:07:56.437Z,10.50
2023-02-22T07:10:30.539Z,10.50
2023-02-22T07:12:58.052Z,10.50
2023-02-22T07:15:27.954Z,10.50
2023-02-22T07:17:57.605Z,10.50
2023-02-22T07:20:27.677Z,10.60
2023-02-22T07:22:55.396Z,10.60
2023-02-22T07:25:24.040Z,10.60
2023-02-22T07:27:52.565Z,10.60
2023-02-22T07:30:29.061Z,10.60
2023-02-22T07:32:57.587Z,10.70
2023-02-22T07:35:28.617Z,10.70
2023-02-22T07:37:56.237Z,10.70
2023-02-22T07:40:24.798Z,10.70
2023-02-22T07:42:58.052Z,10.80
2023-02-22T07:45:33.392Z,10.80
2023-02-22T07:48:02.276Z,10.90
2023-02-22T07:50:31.880Z,10.90
2023-02-22T07:53:05.273Z,10.90
2023-02-22T07:55:33.657Z,11.00
2023-02-22T07:58:03.482Z,11.00
2023-02-22T08:00:32.842Z,11.00
2023-02-22T08:03:02.006Z,11.00
2023-02-22T08:05:30.259Z,11.00
2023-02-22T08:07:59.760Z,11.00
2023-02-22T08:10:27.377Z,11.00
2023-02-22T08:12:57.054Z,11.00
2023-02-22T08:15:42.181Z,11.10
2023-02-22T08:18:15.438Z,11.10
2023-02-22T08:20:44.439Z,11.20
2023-02-22T08:23:13.007Z,11.20
2023-02-22T08:25:40.863Z,11.20
2023-02-22T08:28:12.162Z,11.20
2023-02-22T08:30:42.966Z,11.30
2023-02-22T08:33:19.594Z,11.30
2023-02-22T08:35:52.015Z,11.30
2023-02-22T08:38:26.641Z,11.40
2023-02-22T08:40:54.464Z,11.40
2023-02-22T08:43:26.045Z,11.40
2023-02-22T08:45:57.192Z,11.50
2023-02-22T08:48:24.994Z,11.50
2023-02-22T08:50:55.244Z,11.60
2023-02-22T08:53:22.704Z,11.60
2023-02-22T08:55:49.916Z,11.60
2023-02-22T08:58:20.181Z,11.70
2023-02-22T09:00:47.521Z,11.70
2023-02-22T09:03:15.635Z,11.70
2023-02-22T09:05:44.654Z,11.70
2023-02-22T09:08:13.558Z,11.80
2023-02-22T09:10:41.710Z,11.80
2023-02-22T09:13:10.761Z,11.80
2023-02-22T09:15:39.951Z,11.90
2023-02-22T09:18:10.276Z,11.90
2023-02-22T09:20:37.553Z,11.90
2023-02-22T09:23:07.679Z,12.00
2023-02-22T09:25:35.954Z,12.00
2023-02-22T09:28:03.340Z,12.10
2023-02-22T09:30:32.719Z,12.10
2023-02-22T09:33:03.873Z,12.30
2023-02-22T09:35:36.407Z,12.20
2023-02-22T09:38:08.737Z,12.30
2023-02-22T09:40:45.382Z,12.40
2023-02-22T09:43:27.038Z,12.40
2023-02-22T09:46:19.891Z,12.50
2023-02-22T09:49:00.196Z,12.50
2023-02-22T09:51:40.338Z,12.60
2023-02-22T09:54:36.702Z,12.60
2023-02-22T09:57:19.407Z,12.70
2023-02-22T10:00:13.911Z,12.70
2023-02-22T10:02:49.841Z,12.80
2023-02-22T10:05:28.095Z,12.80
2023-02-22T10:08:11.532Z,12.90
2023-02-22T10:10:52.509Z,13.00
2023-02-22T10:13:56.723Z,13.00
2023-02-22T10:16:59.632Z,13.00
2023-02-22T10:19:38.662Z,13.10
2023-02-22T10:22:28.799Z,13.10
2023-02-22T10:25:02.880Z,13.10
2023-02-22T10:27:34.941Z,13.20
2023-02-22T10:30:23.495Z,13.30
2023-02-22T10:33:17.319Z,13.30
2023-02-22T10:35:47.052Z,13.40
2023-02-22T10:38:22.202Z,13.40
2023-02-22T10:41:08.962Z,13.40
2023-02-22T10:43:41.649Z,13.50
2023-02-22T10:46:15.296Z,13.50
2023-02-22T10:48:45.630Z,13.60
2023-02-22T10:51:13.840Z,13.60
2023-02-22T10:53:41.185Z,13.70
2023-02-22T10:56:19.605Z,13.70
2023-02-22T10:59:02.720Z,13.80
2023-02-22T11:01:33.173Z,13.90
2023-02-22T11:04:22.538Z,14.00
2023-02-22T11:07:17.010Z,14.00
2023-02-22T11:09:51.608Z,14.00
2023-02-22T11:12:23.487Z,14.00
2023-02-22T11:14:52.573Z,14.10
2023-02-22T11:17:34.114Z,14.10
2023-02-22T11:20:01.705Z,14.20
2023-02-22T11:22:40.790Z,14.20
2023-02-22T11:25:08.796Z,14.20
2023-02-22T11:27:47.221Z,14.30
2023-02-22T11:30:43.988Z,14.30
2023-02-22T11:33:25.068Z,14.30
2023-02-22T11:35:58.284Z,14.30
2023-02-22T11:38:31.234Z,14.30
2023-02-22T11:41:17.310Z,14.30
2023-02-22T11:43:51.778Z,14.40
2023-02-22T11:46:30.192Z,14.50
2023-02-22T11:49:01.628Z,14.50
2023-02-22T11:51:50.390Z,14.60
2023-02-22T11:54:32.301Z,14.60
2023-02-22T11:57:08.757Z,14.60
2023-02-22T12:00:07.448Z,14.60
2023-02-22T12:03:15.981Z,14.60
2023-02-22T12:05:59.561Z,14.60
2023-02-22T12:08:38.877Z,14.60
2023-02-22T12:11:24.004Z,14.50
2023-02-22T12:14:00.239Z,14.50
2023-02-22T12:16:46.986Z,14.40
2023-02-22T12:19:22.275Z,14.50
2023-02-22T12:22:02.330Z,14.50
2023-02-22T12:24:48.883Z,14.40
2023-02-22T12:27:30.439Z,14.40
2023-02-22T12:30:05.844Z,14.40
2023-02-22T12:32:49.611Z,14.30
2023-02-22T12:35:27.921Z,14.30
2023-02-22T12:38:04.932Z,14.30
2023-02-22T12:41:01.149Z,14.30
2023-02-22T12:43:34.558Z,14.20
2023-02-22T12:46:19.496Z,14.20
2023-02-22T12:48:54.753Z,14.20
2023-02-22T12:51:53.257Z,14.20
2023-02-22T12:54:58.101Z,14.20
2023-02-22T12:57:44.765Z,14.30
2023-02-22T13:00:43.227Z,14.30
2023-02-22T13:03:40.989Z,14.30
2023-02-22T13:06:44.268Z,14.30
2023-02-22T13:09:33.022Z,14.30
2023-02-22T13:12:15.649Z,14.30
2023-02-22T13:15:17.364Z,14.30
2023-02-22T13:18:36.484Z,14.30
2023-02-22T13:21:17.358Z,14.30
2023-02-22T13:24:03.848Z,14.30
2023-02-22T13:26:45.879Z,14.30
2023-02-22T13:29:19.974Z,14.20
2023-02-22T13:32:25.492Z,14.20
2023-02-22T13:35:05.194Z,14.20
2023-02-22T13:37:40.450Z,14.20
2023-02-22T13:40:22.675Z,14.10
2023-02-22T13:43:08.565Z,14.10
2023-02-22T13:45:42.228Z,14.10
2023-02-22T13:48:12.360Z,14.00
2023-02-22T13:51:25.045Z,14.00
2023-02-22T13:53:59.603Z,14.00
2023-02-22T13:56:31.299Z,14.00
2023-02-22T13:59:04.662Z,14.00
2023-02-22T14:01:47.886Z,14.00
2023-02-22T14:04:29.664Z,14.00
2023-02-22T14:07:26.035Z,14.00
2023-02-22T14:09:59.692Z,14.00
2023-02-22T14:12:30.081Z,14.00
2023-02-22T14:15:28.314Z,14.00
2023-02-22T14:18:02.179Z,14.00
2023-02-22T14:20:40.405Z,14.00
2023-02-22T14:23:31.503Z,14.00
2023-02-22T14:26:16.077Z,14.10
2023-02-22T14:28:54.821Z,14.10
2023-02-22T14:31:36.995Z,14.20
2023-02-22T14:34:07.811Z,14.20
2023-02-22T14:37:01.556Z,14.20
2023-02-22T14:39:51.457Z,14.30
2023-02-22T14:42:37.752Z,14.40
2023-02-22T14:45:24.900Z,14.40
2023-02-22T14:48:29.792Z,14.40
2023-02-22T14:51:15.636Z,14.50
2023-02-22T14:53:52.000Z,14.50
2023-02-22T14:56:25.086Z,14.60
2023-02-22T14:59:08.201Z,14.60
2023-02-22T15:01:55.271Z,14.70
2023-02-22T15:04:33.499Z,14.70
2023-02-22T15:07:21.628Z,14.80
2023-02-22T15:09:48.896Z,14.80
2023-02-22T15:12:29.986Z,14.80
2023-02-22T15:15:32.834Z,14.90
2023-02-22T15:17:59.977Z,14.90
2023-02-22T15:20:28.467Z,15.00
2023-02-22T15:23:00.469Z,15.00
2023-02-22T15:25:31.914Z,15.00
2023-02-22T15:28:05.378Z,15.00
2023-02-22T15:30:34.588Z,14.90
2023-02-22T15:33:26.461Z,14.90
2023-02-22T15:35:55.780Z,14.90
2023-02-22T15:38:29.804Z,14.80
2023-02-22T15:41:22.084Z,14.70
2023-02-22T15:44:23.806Z,14.70
2023-02-22T15:46:54.474Z,14.60
2023-02-22T15:49:23.711Z,14.50
2023-02-22T15:52:24.911Z,14.50
2023-02-22T15:54:53.575Z,14.40
2023-02-22T15:57:25.752Z,14.40
2023-02-22T15:59:57.198Z,14.30
2023-02-22T16:02:39.908Z,14.30
2023-02-22T16:05:14.252Z,14.20
2023-02-22T16:07:48.284Z,14.30
2023-02-22T16:10:30.345Z,14.20
2023-02-22T16:13:32.317Z,14.20
2023-02-22T16:16:24.958Z,14.20
2023-02-22T16:18:53.719Z,14.10
2023-02-22T16:21:24.118Z,14.10
2023-02-22T16:24:01.353Z,14.00
2023-02-22T16:26:35.056Z,14.00
2023-02-22T16:29:06.780Z,14.00
2023-02-22T16:31:39.553Z,13.90
2023-02-22T16:34:09.668Z,13.90
2023-02-22T16:36:50.341Z,13.90
2023-02-22T16:39:19.406Z,13.90
2023-02-22T16:41:47.091Z,13.80
2023-02-22T16:44:14.610Z,13.80
2023-02-22T16:46:45.865Z,13.80
2023-02-22T16:49:14.105Z,13.80
2023-02-22T16:51:56.467Z,13.80
2023-02-22T16:54:30.339Z,13.70
2023-02-22T16:57:00.673Z,13.70
2023-02-22T16:59:31.781Z,13.60
2023-02-22T17:01:59.202Z,13.60
2023-02-22T17:04:28.849Z,13.60
2023-02-22T17:06:58.985Z,13.60
2023-02-22T17:09:26.459Z,13.50
2023-02-22T17:11:55.538Z,13.50
2023-02-22T17:14:24.439Z,13.50
2023-02-22T17:16:52.657Z,13.50
2023-02-22T17:19:26.654Z,13.50
2023-02-22T17:21:55.652Z,13.50
2023-02-22T17:24:29.305Z,13.50
2023-02-22T17:26:58.852Z,13.50
2023-02-22T17:29:27.843Z,13.40
2023-02-22T17:31:55.296Z,13.50
2023-02-22T17:34:22.404Z,13.40
2023-02-22T17:36:50.316Z,13.40
2023-02-22T17:39:17.389Z,13.40
2023-02-22T17:41:44.980Z,13.40
2023-02-22T17:44:12.382Z,13.40
2023-02-22T17:46:42.218Z,13.40
2023-02-22T17:49:09.225Z,13.30
2023-02-22T17:51:41.001Z,13.30
2023-02-22T17:54:10.530Z,13.30
2023-02-22T17:56:38.260Z,13.30
2023-02-22T17:59:09.101Z,13.30
2023-02-22T18:01:38.880Z,13.30
2023-02-22T18:04:05.914Z,13.20
2023-02-22T18:06:35.445Z,13.20
2023-02-22T18:09:10.587Z,13.10
2023-02-22T18:11:40.098Z,13.10
2023-02-22T18:14:10.160Z,13.10
2023-02-22T18:16:42.504Z,13.00
2023-02-22T18:19:09.691Z,13.00
2023-02-22T18:21:36.814Z,13.00
2023-02-22T18:24:05.106Z,12.90
2023-02-22T18:26:32.194Z,12.90
2023-02-22T18:29:01.143Z,12.90
2023-02-22T18:31:28.193Z,13.00
2023-02-22T18:33:57.571Z,13.00
2023-02-22T18:36:26.534Z,13.00
2023-02-22T18:38:54.970Z,13.00
2023-02-22T18:41:26.694Z,12.90
2023-02-22T18:43:55.564Z,12.90
2023-02-22T18:46:24.609Z,12.90
2023-02-22T18:48:56.646Z,12.80
2023-02-22T18:51:24.859Z,12.80
2023-02-22T18:54:00.433Z,12.70
2023-02-22T18:56:30.120Z,12.70
2023-02-22T18:59:00.289Z,12.70
2023-02-22T19:01:28.144Z,12.60
2023-02-22T19:03:55.923Z,12.60
2023-02-22T19:06:23.548Z,12.60
2023-02-22T19:08:51.253Z,12.50
2023-02-22T19:11:22.316Z,12.50
2023-02-22T19:13:51.794Z,12.50
2023-02-22T19:16:21.590Z,12.50
2023-02-22T19:18:52.592Z,12.50
2023-02-22T19:21:20.899Z,12.50
2023-02-22T19:23:49.085Z,12.50
2023-02-22T19:26:24.177Z,12.50
2023-02-22T19:28:54.454Z,12.50
2023-02-22T19:31:29.822Z,12.50
2023-02-22T19:34:01.762Z,12.50
2023-02-22T19:36:28.829Z,12.40
2023-02-22T19:38:57.467Z,12.50
2023-02-22T19:41:24.598Z,12.50
2023-02-22T19:43:52.928Z,12.40
2023-02-22T19:46:21.604Z,12.40
2023-02-22T19:48:49.325Z,12.40
2023-02-22T19:51:18.795Z,12.40
2023-02-22T19:53:47.241Z,12.40
2023-02-22T19:56:20.017Z,12.40
2023-02-22T19:58:50.182Z,12.40
2023-02-22T20:01:23.233Z,12.50
2023-02-22T20:04:12.781Z,12.40
2023-02-22T20:06:42.682Z,12.50
2023-02-22T20:09:13.093Z,12.40
2023-02-22T20:11:40.962Z,12.40
2023-02-22T20:14:08.002Z,12.40
2023-02-22T20:16:35.828Z,12.50
2023-02-22T20:19:03.216Z,12.50
2023-02-22T20:21:33.559Z,12.40
2023-02-22T20:24:02.637Z,12.50
2023-02-22T20:26:32.060Z,12.50
2023-02-22T20:28:59.713Z,12.50
2023-02-22T20:31:29.690Z,12.50
2023-02-22T20:34:02.628Z,12.50
2023-02-22T20:36:30.492Z,12.50
2023-02-22T20:39:07.547Z,12.50
2023-02-22T20:41:36.189Z,12.50
2023-02-22T20:44:07.375Z,12.50
2023-02-22T20:46:38.124Z,12.50
2023-02-22T20:49:09.685Z,12.50
2023-02-22T20:51:43.501Z,12.50
2023-02-22T20:54:12.755Z,12.40
2023-02-22T20:56:42.573Z,12.50
2023-02-22T20:59:14.296Z,12.40
2023-02-22T21:01:43.503Z,12.40
2023-02-22T21:04:11.609Z,12.40
2023-02-22T21:06:40.238Z,12.40
2023-02-22T21:09:11.917Z,12.40
2023-02-22T21:11:40.124Z,12.40
2023-02-22T21:14:07.493Z,12.40
2023-02-22T21:16:36.867Z,12.40
2023-02-22T21:19:06.954Z,12.40
2023-02-22T21:21:36.442Z,12.40
2023-02-22T21:24:08.093Z,12.40
2023-02-22T21:26:36.951Z,12.40
2023-02-22T21:29:07.237Z,12.40
2023-02-22T21:31:38.001Z,12.40
2023-02-22T21:34:05.669Z,12.40
2023-02-22T21:36:35.915Z,12.40
2023-02-22T21:39:09.817Z,12.40
2023-02-22T21:41:40.468Z,12.30
2023-02-22T21:44:08.278Z,12.30
2023-02-22T21:46:35.380Z,12.30
2023-02-22T21:49:02.805Z,12.30
2023-02-22T21:51:32.140Z,12.30
2023-02-22T21:54:03.373Z,12.20
2023-02-22T21:56:34.459Z,12.20
2023-02-22T21:59:04.612Z,12.20
2023-02-22T22:01:38.665Z,12.20
2023-02-22T22:04:06.856Z,12.20
2023-02-22T22:06:34.940Z,12.20
2023-02-22T22:09:15.258Z,12.20
2023-02-22T22:11:42.619Z,12.20
2023-02-22T22:14:10.678Z,12.20
2023-02-22T22:16:37.755Z,12.20
2023-02-22T22:19:07.745Z,12.20
2023-02-22T22:21:35.038Z,12.10
2023-02-22T22:24:04.005Z,12.10
2023-02-22T22:26:31.052Z,12.10
2023-02-22T22:29:00.325Z,12.10
2023-02-22T22:31:28.891Z,12.10
2023-02-22T22:33:57.576Z,12.10
2023-02-22T22:36:27.101Z,12.00
2023-02-22T22:38:57.647Z,12.00
2023-02-22T22:41:28.213Z,12.00
2023-02-22T22:43:56.226Z,11.90
2023-02-22T22:46:23.416Z,11.90
2023-02-22T22:48:50.623Z,11.90
2023-02-22T22:51:20.922Z,11.90
2023-02-22T22:53:52.565Z,11.90
2023-02-22T22:56:27.502Z,11.80
2023-02-22T22:58:57.604Z,11.80
2023-02-22T23:01:34.566Z,11.80
2023-02-22T23:04:04.476Z,11.70
2023-02-22T23:06:40.992Z,11.70
2023-02-22T23:09:12.758Z,11.70
2023-02-22T23:11:47.669Z,11.70
2023-02-22T23:14:24.283Z,11.70
2023-02-22T23:16:53.541Z,11.70
2023-02-22T23:19:27.685Z,11.70
2023-02-22T23:21:56.020Z,11.60
2023-02-22T23:24:27.394Z,11.60
2023-02-22T23:27:00.384Z,11.60
2023-02-22T23:29:30.044Z,11.60
2023-02-22T23:31:58.713Z,11.60
2023-02-22T23:34:27.766Z,11.50
2023-02-22T23:36:55.031Z,11.50
2023-02-22T23:39:24.408Z,11.50
2023-02-22T23:41:55.233Z,11.60
2023-02-22T23:44:23.787Z,11.50
2023-02-22T23:46:55.720Z,11.50
2023-02-22T23:49:27.769Z,11.50
2023-02-22T23:51:55.003Z,11.60
2023-02-22T23:54:27.104Z,11.50
2023-02-22T23:56:57.103Z,11.50
2023-02-22T23:59:29.354Z,11.50
